createdAt,value
2018-04-07T00:00:15.964Z,48.68
2018-04-07T00:00:42.119Z,48.68
2018-04-07T00:01:08.302Z,48.87
2018-04-07T00:01:34.473Z,48.97
2018-04-07T00:02:00.664Z,48.97
2018-04-07T00:02:26.840Z,48.58
2018-04-07T00:02:53.019Z,48.78
2018-04-07T00:03:19.174Z,48.97
2018-04-07T00:03:45.357Z,48.97
2018-04-07T00:04:11.529Z,48.87
2018-04-07T00:04:37.672Z,48.94
2018-04-07T00:05:03.876Z,49.04
2018-04-07T00:05:30.024Z,48.94
2018-04-07T00:05:56.172Z,49.04
2018-04-07T00:06:22.353Z,49.16
2018-04-07T00:06:48.511Z,49.13
2018-04-07T00:07:14.673Z,49.04
2018-04-07T00:07:40.853Z,49.16
2018-04-07T00:08:07.047Z,48.97
2018-04-07T00:08:33.216Z,49.51
2018-04-07T00:08:59.393Z,49.16
2018-04-07T00:09:25.544Z,49.06
2018-04-07T00:09:51.779Z,49.23
2018-04-07T00:10:17.894Z,49.13
2018-04-07T00:10:44.075Z,49.04
2018-04-07T00:11:10.257Z,49.04
2018-04-07T00:11:36.422Z,49.04
2018-04-07T00:12:02.589Z,49.23
2018-04-07T00:12:28.741Z,48.85
2018-04-07T00:12:54.900Z,49.61
2018-04-07T00:13:21.063Z,49.44
2018-04-07T00:13:47.217Z,48.97
2018-04-07T00:14:13.394Z,49.23
2018-04-07T00:14:39.549Z,48.85
2018-04-07T00:15:05.719Z,49.13
2018-04-07T00:15:31.864Z,48.94
2018-04-07T00:15:58.027Z,48.75
2018-04-07T00:16:24.178Z,48.94
2018-04-07T00:16:50.329Z,49.32
2018-04-07T00:17:16.521Z,49.71
2018-04-07T00:17:42.675Z,49.61
2018-04-07T00:18:08.843Z,49.61
2018-04-07T00:18:35.003Z,49.8
2018-04-07T00:19:01.202Z,49.9
2018-04-07T00:19:27.348Z,49.71
2018-04-07T00:19:53.496Z,48.94
2018-04-07T00:20:19.659Z,48.94
2018-04-07T00:20:45.820Z,49.51
2018-04-07T00:21:11.980Z,49.51
2018-04-07T00:21:38.135Z,49.71
2018-04-07T00:22:04.318Z,49.71
2018-04-07T00:22:30.477Z,49.51
2018-04-07T00:22:56.665Z,49.51
2018-04-07T00:23:22.807Z,49.9
2018-04-07T00:23:48.961Z,49.61
2018-04-07T00:24:15.139Z,49.8
2018-04-07T00:24:41.292Z,49.8
2018-04-07T00:25:07.461Z,49.9
2018-04-07T00:25:33.631Z,49.42
2018-04-07T00:25:59.815Z,49.61
2018-04-07T00:26:25.962Z,49.61
2018-04-07T00:26:52.134Z,49.32
2018-04-07T00:27:18.314Z,49.51
2018-04-07T00:27:44.455Z,49.61
2018-04-07T00:28:10.616Z,49.8
2018-04-07T00:28:36.772Z,49.61
2018-04-07T00:29:02.940Z,49.23
2018-04-07T00:29:29.157Z,49.9
2018-04-07T00:29:55.312Z,49.9
2018-04-07T00:30:21.459Z,49.51
2018-04-07T00:30:47.611Z,49.32
2018-04-07T00:31:13.794Z,49.71
2018-04-07T00:31:39.948Z,49.61
2018-04-07T00:32:06.103Z,49.61
2018-04-07T00:32:32.343Z,49.42
2018-04-07T00:32:58.496Z,49.99
2018-04-07T00:33:24.647Z,49.61
2018-04-07T00:33:50.818Z,49.8
2018-04-07T00:34:16.983Z,49.32
2018-04-07T00:34:43.124Z,49.04
2018-04-07T00:35:09.279Z,48.94
2018-04-07T00:35:35.426Z,48.94
2018-04-07T00:36:01.584Z,49.51
2018-04-07T00:36:27.744Z,49.9
2018-04-07T00:36:53.901Z,49.51
2018-04-07T00:37:20.053Z,49.61
2018-04-07T00:37:46.213Z,49.32
2018-04-07T00:38:12.368Z,49.8
2018-04-07T00:38:38.559Z,49.71
2018-04-07T00:39:04.706Z,49.61
2018-04-07T00:39:30.860Z,49.9
2018-04-07T00:39:57.101Z,49.61
2018-04-07T00:40:23.265Z,49.71
2018-04-07T00:40:49.415Z,49.71
2018-04-07T00:41:15.569Z,49.61
2018-04-07T00:41:41.749Z,49.71
2018-04-07T00:42:07.896Z,49.51
2018-04-07T00:42:34.049Z,49.51
2018-04-07T00:43:00.192Z,49.71
2018-04-07T00:43:26.356Z,49.51
2018-04-07T00:43:52.522Z,49.23
2018-04-07T00:44:18.677Z,48.87
2018-04-07T00:44:44.842Z,48.97
2018-04-07T00:45:10.991Z,48.94
2018-04-07T00:45:37.153Z,48.66
2018-04-07T00:46:03.319Z,48.75
2018-04-07T00:46:29.502Z,49.04
2018-04-07T00:46:55.625Z,49.23
2018-04-07T00:47:21.808Z,49.23
2018-04-07T00:47:47.970Z,48.85
2018-04-07T00:48:14.120Z,49.16
2018-04-07T00:48:40.271Z,48.97
2018-04-07T00:49:06.423Z,48.78
2018-04-07T00:49:32.605Z,48.97
2018-04-07T00:49:58.753Z,49.06
2018-04-07T00:50:24.907Z,48.97
2018-04-07T00:50:51.064Z,48.78
2018-04-07T00:51:17.215Z,48.78
2018-04-07T00:51:43.378Z,48.58
2018-04-07T00:52:09.526Z,48.78
2018-04-07T00:52:35.681Z,48.68
2018-04-07T00:53:01.832Z,48.68
2018-04-07T00:53:27.990Z,48.97
2018-04-07T00:53:54.152Z,48.49
2018-04-07T00:54:20.305Z,48.58
2018-04-07T00:54:46.453Z,48.68
2018-04-07T00:55:12.626Z,48.68
2018-04-07T00:55:38.795Z,48.94
2018-04-07T00:56:04.973Z,48.78
2018-04-07T00:56:31.133Z,48.68
2018-04-07T00:56:57.293Z,48.49
2018-04-07T00:57:23.445Z,48.68
2018-04-07T00:57:49.610Z,48.87
2018-04-07T00:58:15.771Z,48.87
2018-04-07T00:58:41.934Z,48.97
2018-04-07T00:59:08.103Z,48.87
2018-04-07T00:59:34.288Z,48.58
2018-04-07T01:00:00.454Z,48.39
2018-04-07T01:00:26.681Z,48.21
2018-04-07T01:00:52.815Z,48.39
2018-04-07T01:01:19.008Z,48.39
2018-04-07T01:01:45.162Z,48.39
2018-04-07T01:02:11.341Z,48.49
2018-04-07T01:02:37.515Z,48.49
2018-04-07T01:03:03.704Z,48.49
2018-04-07T01:03:29.856Z,48.39
2018-04-07T01:03:56.045Z,48.39
2018-04-07T01:04:22.230Z,48.39
2018-04-07T01:04:48.381Z,48.21
2018-04-07T01:05:14.549Z,48.21
2018-04-07T01:05:40.698Z,48.49
2018-04-07T01:06:06.868Z,48.11
2018-04-07T01:06:33.054Z,48.39
2018-04-07T01:06:59.200Z,48.3
2018-04-07T01:07:25.353Z,47.73
2018-04-07T01:07:51.514Z,47.92
2018-04-07T01:08:17.679Z,47.92
2018-04-07T01:08:43.813Z,48.02
2018-04-07T01:09:09.995Z,48.02
2018-04-07T01:09:36.180Z,48.02
2018-04-07T01:10:02.380Z,48.21
2018-04-07T01:10:28.577Z,47.92
2018-04-07T01:10:54.752Z,47.92
2018-04-07T01:11:20.922Z,48.39
2018-04-07T01:11:47.125Z,48.21
2018-04-07T01:12:13.265Z,48.39
2018-04-07T01:12:39.422Z,48.21
2018-04-07T01:13:05.573Z,48.3
2018-04-07T01:13:31.735Z,48.3
2018-04-07T01:13:57.888Z,47.92
2018-04-07T01:14:24.046Z,48.11
2018-04-07T01:14:50.196Z,47.92
2018-04-07T01:15:16.355Z,48.02
2018-04-07T01:15:42.522Z,48.11
2018-04-07T01:16:08.671Z,48.39
2018-04-07T01:16:34.823Z,48.11
2018-04-07T01:17:00.977Z,48.39
2018-04-07T01:17:27.139Z,48.39
2018-04-07T01:17:53.306Z,48.3
2018-04-07T01:18:19.484Z,48.3
2018-04-07T01:18:45.651Z,48.39
2018-04-07T01:19:11.793Z,48.3
2018-04-07T01:19:37.948Z,48.3
2018-04-07T01:20:04.101Z,48.3
2018-04-07T01:20:30.255Z,48.49
2018-04-07T01:20:56.449Z,48.58
2018-04-07T01:21:22.614Z,48.78
2018-04-07T01:21:48.762Z,48.78
2018-04-07T01:22:14.922Z,48.68
2018-04-07T01:22:41.062Z,48.39
2018-04-07T01:23:07.212Z,48.21
2018-04-07T01:23:33.368Z,48.3
2018-04-07T01:23:59.530Z,48.39
2018-04-07T01:24:25.680Z,48.39
2018-04-07T01:24:51.831Z,48.18
2018-04-07T01:25:18.030Z,48.18
2018-04-07T01:25:44.186Z,48.49
2018-04-07T01:26:10.379Z,48.78
2018-04-07T01:26:36.534Z,48.58
2018-04-07T01:27:02.714Z,48.68
2018-04-07T01:27:28.872Z,48.66
2018-04-07T01:27:55.030Z,48.58
2018-04-07T01:28:21.183Z,48.18
2018-04-07T01:28:47.352Z,48.39
2018-04-07T01:29:13.534Z,48.47
2018-04-07T01:29:39.694Z,48.49
2018-04-07T01:30:05.847Z,48.56
2018-04-07T01:30:31.997Z,48.94
2018-04-07T01:30:58.215Z,48.75
2018-04-07T01:31:24.299Z,48.66
2018-04-07T01:31:50.462Z,48.85
2018-04-07T01:32:16.612Z,48.56
2018-04-07T01:32:42.765Z,48.47
2018-04-07T01:33:08.914Z,48.85
2018-04-07T01:33:35.094Z,48.66
2018-04-07T01:34:01.246Z,49.04
2018-04-07T01:34:27.409Z,49.04
2018-04-07T01:34:53.593Z,48.94
2018-04-07T01:35:19.759Z,48.94
2018-04-07T01:35:45.939Z,48.75
2018-04-07T01:36:12.101Z,48.94
2018-04-07T01:36:38.260Z,48.85
2018-04-07T01:37:04.412Z,49.04
2018-04-07T01:37:30.599Z,49.23
2018-04-07T01:37:56.766Z,49.13
2018-04-07T01:38:22.955Z,49.04
2018-04-07T01:38:49.124Z,49.32
2018-04-07T01:39:15.279Z,49.71
2018-04-07T01:39:41.439Z,49.51
2018-04-07T01:40:07.588Z,49.42
2018-04-07T01:40:33.743Z,49.04
2018-04-07T01:40:59.896Z,49.42
2018-04-07T01:41:26.057Z,49.23
2018-04-07T01:41:52.202Z,49.23
2018-04-07T01:42:18.365Z,49.71
2018-04-07T01:42:44.517Z,49.51
2018-04-07T01:43:10.672Z,49.51
2018-04-07T01:43:36.826Z,49.51
2018-04-07T01:44:02.980Z,49.32
2018-04-07T01:44:29.133Z,49.61
2018-04-07T01:44:55.283Z,49.9
2018-04-07T01:45:21.473Z,49.51
2018-04-07T01:45:47.639Z,49.42
2018-04-07T01:46:13.821Z,48.94
2018-04-07T01:46:39.945Z,49.13
2018-04-07T01:47:06.095Z,49.04
2018-04-07T01:47:32.249Z,49.13
2018-04-07T01:47:58.440Z,49.23
2018-04-07T01:48:24.589Z,48.94
2018-04-07T01:48:50.741Z,49.51
2018-04-07T01:49:16.914Z,49.61
2018-04-07T01:49:43.114Z,49.8
2018-04-07T01:50:09.262Z,49.13
2018-04-07T01:50:35.433Z,49.61
2018-04-07T01:51:01.607Z,49.61
2018-04-07T01:51:27.783Z,49.51
2018-04-07T01:51:53.939Z,49.51
2018-04-07T01:52:20.092Z,49.51
2018-04-07T01:52:46.277Z,49.51
2018-04-07T01:53:12.495Z,48.94
2018-04-07T01:53:38.633Z,49.04
2018-04-07T01:54:04.778Z,49.04
2018-04-07T01:54:30.931Z,49.04
2018-04-07T01:54:57.082Z,48.94
2018-04-07T01:55:23.261Z,48.94
2018-04-07T01:55:49.440Z,49.13
2018-04-07T01:56:15.619Z,48.94
2018-04-07T01:56:41.765Z,48.75
2018-04-07T01:57:07.920Z,49.13
2018-04-07T01:57:34.065Z,49.04
2018-04-07T01:58:00.216Z,49.23
2018-04-07T01:58:26.419Z,49.42
2018-04-07T01:58:52.551Z,49.42
2018-04-07T01:59:18.702Z,49.49
2018-04-07T01:59:44.890Z,49.8
2018-04-07T02:00:11.050Z,49.61
2018-04-07T02:00:37.250Z,49.8
2018-04-07T02:01:03.406Z,49.51
2018-04-07T02:01:29.561Z,49.42
2018-04-07T02:01:55.714Z,49.61
2018-04-07T02:02:21.871Z,49.51
2018-04-07T02:02:48.029Z,49.61
2018-04-07T02:03:14.229Z,49.61
2018-04-07T02:03:40.438Z,49.61
2018-04-07T02:04:06.612Z,49.42
2018-04-07T02:04:32.781Z,49.4
2018-04-07T02:04:58.915Z,49.51
2018-04-07T02:05:25.124Z,49.58
2018-04-07T02:05:51.277Z,49.8
2018-04-07T02:06:17.470Z,49.9
2018-04-07T02:06:43.620Z,49.71
2018-04-07T02:07:09.796Z,49.8
2018-04-07T02:07:35.956Z,49.8
2018-04-07T02:08:02.116Z,49.51
2018-04-07T02:08:28.256Z,49.61
2018-04-07T02:08:54.405Z,49.42
2018-04-07T02:09:20.577Z,49.8
2018-04-07T02:09:46.722Z,49.42
2018-04-07T02:10:12.891Z,49.61
2018-04-07T02:10:39.068Z,49.42
2018-04-07T02:11:05.226Z,49.51
2018-04-07T02:11:31.413Z,49.4
2018-04-07T02:11:57.559Z,49.49
2018-04-07T02:12:23.707Z,49.4
2018-04-07T02:12:49.870Z,49.49
2018-04-07T02:13:16.022Z,49.58
2018-04-07T02:13:42.175Z,49.58
2018-04-07T02:14:08.323Z,49.68
2018-04-07T02:14:34.482Z,49.58
2018-04-07T02:15:00.654Z,49.77
2018-04-07T02:15:26.816Z,50.06
2018-04-07T02:15:53.020Z,50.15
2018-04-07T02:16:19.167Z,49.96
2018-04-07T02:16:45.336Z,49.96
2018-04-07T02:17:11.494Z,49.96
2018-04-07T02:17:37.687Z,50.27
2018-04-07T02:18:03.866Z,49.8
2018-04-07T02:18:30.050Z,50.06
2018-04-07T02:18:56.239Z,49.71
2018-04-07T02:19:22.420Z,49.8
2018-04-07T02:19:48.564Z,49.71
2018-04-07T02:20:14.720Z,49.51
2018-04-07T02:20:40.871Z,49.71
2018-04-07T02:21:07.025Z,49.71
2018-04-07T02:21:33.177Z,49.71
2018-04-07T02:21:59.330Z,49.71
2018-04-07T02:22:25.479Z,49.42
2018-04-07T02:22:51.654Z,49.61
2018-04-07T02:23:17.812Z,49.61
2018-04-07T02:23:43.963Z,49.71
2018-04-07T02:24:10.114Z,49.8
2018-04-07T02:24:36.286Z,49.61
2018-04-07T02:25:02.430Z,49.68
2018-04-07T02:25:28.589Z,49.61
2018-04-07T02:25:54.743Z,49.71
2018-04-07T02:26:20.892Z,49.61
2018-04-07T02:26:47.075Z,49.61
2018-04-07T02:27:13.272Z,49.58
2018-04-07T02:27:39.409Z,49.61
2018-04-07T02:28:05.568Z,49.58
2018-04-07T02:28:31.750Z,49.49
2018-04-07T02:28:57.905Z,49.68
2018-04-07T02:29:24.067Z,49.96
2018-04-07T02:29:50.219Z,49.77
2018-04-07T02:30:16.415Z,49.77
2018-04-07T02:30:42.572Z,50.15
2018-04-07T02:31:08.791Z,49.87
2018-04-07T02:31:34.924Z,49.77
2018-04-07T02:32:01.081Z,50.06
2018-04-07T02:32:27.268Z,50.15
2018-04-07T02:32:53.429Z,49.87
2018-04-07T02:33:19.595Z,50.25
2018-04-07T02:33:45.798Z,50.25
2018-04-07T02:34:11.955Z,50.15
2018-04-07T02:34:38.155Z,50.15
2018-04-07T02:35:04.320Z,50.06
2018-04-07T02:35:30.470Z,50.27
2018-04-07T02:35:56.629Z,50.15
2018-04-07T02:36:22.778Z,49.87
2018-04-07T02:36:48.932Z,49.61
2018-04-07T02:37:15.101Z,49.68
2018-04-07T02:37:41.291Z,49.8
2018-04-07T02:38:07.444Z,49.77
2018-04-07T02:38:33.589Z,50.06
2018-04-07T02:38:59.778Z,50.15
2018-04-07T02:39:25.940Z,50.15
2018-04-07T02:39:52.123Z,49.9
2018-04-07T02:40:18.299Z,49.99
2018-04-07T02:40:44.449Z,50.09
2018-04-07T02:41:10.639Z,50.35
2018-04-07T02:41:36.840Z,50.18
2018-04-07T02:42:02.970Z,50.18
2018-04-07T02:42:29.196Z,50.18
2018-04-07T02:42:55.345Z,50.09
2018-04-07T02:43:21.503Z,49.8
2018-04-07T02:43:47.658Z,49.9
2018-04-07T02:44:13.805Z,49.71
2018-04-07T02:44:39.957Z,49.8
2018-04-07T02:45:06.142Z,49.8
2018-04-07T02:45:32.301Z,49.71
2018-04-07T02:45:58.469Z,49.9
2018-04-07T02:46:24.621Z,50.27
2018-04-07T02:46:50.797Z,50.18
2018-04-07T02:47:16.969Z,50.18
2018-04-07T02:47:43.124Z,50.09
2018-04-07T02:48:09.283Z,50.27
2018-04-07T02:48:35.458Z,49.9
2018-04-07T02:49:01.617Z,49.71
2018-04-07T02:49:27.776Z,49.99
2018-04-07T02:49:53.919Z,49.8
2018-04-07T02:50:20.123Z,50.18
2018-04-07T02:50:46.217Z,50.27
2018-04-07T02:51:12.382Z,50.18
2018-04-07T02:51:38.586Z,50.27
2018-04-07T02:52:04.735Z,50.18
2018-04-07T02:52:30.902Z,50.18
2018-04-07T02:52:57.072Z,49.96
2018-04-07T02:53:23.234Z,49.96
2018-04-07T02:53:49.426Z,49.96
2018-04-07T02:54:15.571Z,50.25
2018-04-07T02:54:41.725Z,50.09
2018-04-07T02:55:07.881Z,50.15
2018-04-07T02:55:34.062Z,49.77
2018-04-07T02:56:00.214Z,49.96
2018-04-07T02:56:26.405Z,49.96
2018-04-07T02:56:52.565Z,50.27
2018-04-07T02:57:18.717Z,50.25
2018-04-07T02:57:44.882Z,49.8
2018-04-07T02:58:11.035Z,49.87
2018-04-07T02:58:37.209Z,49.77
2018-04-07T02:59:03.361Z,49.96
2018-04-07T02:59:29.511Z,50.15
2018-04-07T02:59:55.662Z,50.15
2018-04-07T03:00:21.849Z,49.77
2018-04-07T03:00:47.988Z,50.06
2018-04-07T03:01:14.160Z,50.25
2018-04-07T03:01:40.343Z,50.15
2018-04-07T03:02:06.488Z,49.87
2018-04-07T03:02:32.668Z,49.87
2018-04-07T03:02:58.816Z,50.06
2018-04-07T03:03:24.964Z,49.77
2018-04-07T03:03:51.113Z,50.15
2018-04-07T03:04:17.292Z,50.35
2018-04-07T03:04:43.444Z,50.73
2018-04-07T03:05:09.619Z,50.73
2018-04-07T03:05:35.771Z,50.63
2018-04-07T03:06:01.928Z,50.44
2018-04-07T03:06:28.128Z,50.44
2018-04-07T03:06:54.276Z,50.15
2018-04-07T03:07:20.461Z,50.15
2018-04-07T03:07:46.609Z,50.54
2018-04-07T03:08:12.786Z,50.35
2018-04-07T03:08:38.938Z,50.44
2018-04-07T03:09:05.113Z,50.82
2018-04-07T03:09:31.266Z,50.82
2018-04-07T03:09:57.442Z,50.35
2018-04-07T03:10:23.593Z,50.92
2018-04-07T03:10:49.739Z,50.92
2018-04-07T03:11:15.894Z,50.73
2018-04-07T03:11:42.066Z,50.63
2018-04-07T03:12:08.217Z,50.54
2018-04-07T03:12:34.367Z,50.35
2018-04-07T03:13:00.518Z,49.96
2018-04-07T03:13:26.691Z,49.87
2018-04-07T03:13:52.838Z,50.15
2018-04-07T03:14:18.991Z,50.15
2018-04-07T03:14:45.139Z,50.06
2018-04-07T03:15:11.294Z,50.15
2018-04-07T03:15:37.440Z,50.44
2018-04-07T03:16:03.599Z,50.82
2018-04-07T03:16:29.742Z,50.73
2018-04-07T03:16:55.893Z,50.63
2018-04-07T03:17:22.153Z,50.82
2018-04-07T03:17:48.302Z,50.73
2018-04-07T03:18:14.456Z,50.73
2018-04-07T03:18:40.606Z,50.73
2018-04-07T03:19:06.755Z,50.73
2018-04-07T03:19:32.903Z,50.92
2018-04-07T03:19:59.053Z,50.73
2018-04-07T03:20:25.203Z,51.01
2018-04-07T03:20:51.380Z,50.92
2018-04-07T03:21:17.503Z,50.73
2018-04-07T03:21:43.651Z,51.01
2018-04-07T03:22:09.830Z,51.01
2018-04-07T03:22:35.989Z,51.01
2018-04-07T03:23:02.140Z,50.92
2018-04-07T03:23:28.320Z,51.2
2018-04-07T03:23:54.481Z,51.87
2018-04-07T03:24:20.620Z,51.84
2018-04-07T03:24:46.767Z,51.65
2018-04-07T03:25:12.919Z,51.56
2018-04-07T03:25:39.066Z,51.46
2018-04-07T03:26:05.268Z,52.32
2018-04-07T03:26:31.448Z,51.84
2018-04-07T03:26:57.593Z,51.75
2018-04-07T03:27:23.746Z,52.13
2018-04-07T03:27:49.899Z,52.51
2018-04-07T03:28:16.045Z,52.13
2018-04-07T03:28:42.192Z,51.56
2018-04-07T03:29:08.344Z,52.03
2018-04-07T03:29:34.495Z,52.03
2018-04-07T03:30:00.643Z,52.32
2018-04-07T03:30:26.797Z,52.22
2018-04-07T03:30:52.970Z,52.51
2018-04-07T03:31:19.149Z,52.22
2018-04-07T03:31:45.328Z,52.32
2018-04-07T03:32:11.477Z,52.51
2018-04-07T03:32:37.627Z,52.22
2018-04-07T03:33:03.775Z,52.41
2018-04-07T03:33:29.924Z,52.41
2018-04-07T03:33:56.074Z,52.51
2018-04-07T03:34:22.223Z,52.51
2018-04-07T03:34:48.370Z,51.93
2018-04-07T03:35:14.520Z,52.03
2018-04-07T03:35:40.670Z,52.41
2018-04-07T03:36:06.849Z,52.8
2018-04-07T03:36:33.023Z,52.61
2018-04-07T03:36:59.172Z,52.41
2018-04-07T03:37:25.322Z,52.41
2018-04-07T03:37:51.474Z,52.32
2018-04-07T03:38:17.627Z,52.22
2018-04-07T03:38:43.776Z,52.13
2018-04-07T03:39:09.927Z,52.41
2018-04-07T03:39:36.078Z,52.41
2018-04-07T03:40:02.229Z,52.61
2018-04-07T03:40:28.377Z,52.32
2018-04-07T03:40:54.528Z,52.41
2018-04-07T03:41:20.678Z,52.41
2018-04-07T03:41:46.829Z,52.13
2018-04-07T03:42:12.975Z,52.32
2018-04-07T03:42:39.127Z,52.32
2018-04-07T03:43:05.275Z,52.22
2018-04-07T03:43:31.426Z,52.41
2018-04-07T03:43:57.577Z,52.22
2018-04-07T03:44:23.727Z,52.22
2018-04-07T03:44:49.881Z,52.32
2018-04-07T03:45:16.032Z,52.41
2018-04-07T03:45:42.180Z,52.34
2018-04-07T03:46:08.326Z,52.13
2018-04-07T03:46:34.477Z,52.41
2018-04-07T03:47:00.632Z,52.25
2018-04-07T03:47:26.803Z,52.06
2018-04-07T03:47:52.954Z,52.03
2018-04-07T03:48:19.106Z,52.51
2018-04-07T03:48:45.255Z,52.34
2018-04-07T03:49:11.409Z,52.15
2018-04-07T03:49:37.563Z,51.78
2018-04-07T03:50:03.710Z,51.84
2018-04-07T03:50:29.887Z,51.84
2018-04-07T03:50:56.016Z,51.56
2018-04-07T03:51:22.166Z,51.84
2018-04-07T03:51:48.318Z,51.75
2018-04-07T03:52:14.469Z,51.68
2018-04-07T03:52:40.620Z,52.41
2018-04-07T03:53:06.797Z,52.13
2018-04-07T03:53:32.948Z,52.32
2018-04-07T03:53:59.098Z,52.32
2018-04-07T03:54:25.302Z,52.03
2018-04-07T03:54:51.452Z,52.15
2018-04-07T03:55:17.655Z,52.13
2018-04-07T03:55:43.840Z,52.51
2018-04-07T03:56:10.013Z,52.32
2018-04-07T03:56:36.162Z,52.41
2018-04-07T03:57:02.314Z,52.44
2018-04-07T03:57:28.464Z,52.25
2018-04-07T03:57:54.613Z,52.41
2018-04-07T03:58:20.765Z,52.41
2018-04-07T03:58:46.914Z,52.41
2018-04-07T03:59:13.087Z,52.41
2018-04-07T03:59:39.265Z,52.41
2018-04-07T04:00:05.411Z,52.41
2018-04-07T04:00:31.561Z,52.41
2018-04-07T04:00:57.709Z,52.51
2018-04-07T04:01:23.861Z,52.32
2018-04-07T04:01:50.009Z,53.27
2018-04-07T04:02:16.158Z,52.98
2018-04-07T04:02:42.307Z,53.17
2018-04-07T04:03:08.459Z,52.8
2018-04-07T04:03:34.605Z,52.8
2018-04-07T04:04:00.758Z,53.08
2018-04-07T04:04:26.904Z,52.8
2018-04-07T04:04:53.084Z,52.89
2018-04-07T04:05:19.234Z,52.89
2018-04-07T04:05:45.382Z,52.89
2018-04-07T04:06:11.560Z,52.51
2018-04-07T04:06:37.736Z,52.8
2018-04-07T04:07:03.916Z,53.27
2018-04-07T04:07:30.064Z,52.98
2018-04-07T04:07:56.213Z,53.17
2018-04-07T04:08:22.360Z,52.61
2018-04-07T04:08:48.513Z,52.8
2018-04-07T04:09:14.664Z,52.8
2018-04-07T04:09:40.839Z,52.89
2018-04-07T04:10:06.992Z,52.51
2018-04-07T04:10:33.141Z,52.72
2018-04-07T04:10:59.292Z,52.8
2018-04-07T04:11:25.440Z,52.92
2018-04-07T04:11:51.591Z,52.72
2018-04-07T04:12:17.740Z,52.63
2018-04-07T04:12:43.894Z,53.01
2018-04-07T04:13:10.067Z,53.2
2018-04-07T04:13:36.218Z,53.2
2018-04-07T04:14:02.394Z,53.17
2018-04-07T04:14:28.547Z,53.01
2018-04-07T04:14:54.729Z,53.11
2018-04-07T04:15:20.879Z,53.2
2018-04-07T04:15:47.032Z,52.25
2018-04-07T04:16:13.180Z,52.25
2018-04-07T04:16:39.333Z,52.25
2018-04-07T04:17:05.512Z,52.44
2018-04-07T04:17:31.662Z,52.15
2018-04-07T04:17:57.811Z,52.25
2018-04-07T04:18:23.963Z,52.34
2018-04-07T04:18:50.135Z,52.44
2018-04-07T04:19:16.304Z,52.44
2018-04-07T04:19:42.479Z,52.15
2018-04-07T04:20:08.628Z,52.53
2018-04-07T04:20:34.780Z,52.25
2018-04-07T04:21:00.929Z,52.25
2018-04-07T04:21:27.082Z,52.44
2018-04-07T04:21:53.232Z,52.15
2018-04-07T04:22:19.383Z,52.15
2018-04-07T04:22:45.537Z,52.34
2018-04-07T04:23:11.693Z,52.34
2018-04-07T04:23:37.837Z,52.53
2018-04-07T04:24:03.989Z,52.15
2018-04-07T04:24:30.140Z,52.34
2018-04-07T04:24:56.289Z,52.34
2018-04-07T04:25:22.439Z,52.06
2018-04-07T04:25:48.588Z,52.34
2018-04-07T04:26:14.739Z,52.44
2018-04-07T04:26:40.888Z,52.34
2018-04-07T04:27:07.041Z,52.63
2018-04-07T04:27:33.186Z,52.63
2018-04-07T04:27:59.333Z,52.13
2018-04-07T04:28:25.490Z,52.32
2018-04-07T04:28:51.668Z,52.61
2018-04-07T04:29:17.839Z,52.89
2018-04-07T04:29:43.989Z,52.98
2018-04-07T04:30:10.142Z,52.8
2018-04-07T04:30:36.318Z,52.61
2018-04-07T04:31:02.478Z,53.27
2018-04-07T04:31:28.648Z,52.89
2018-04-07T04:31:54.798Z,52.61
2018-04-07T04:32:20.952Z,52.89
2018-04-07T04:32:47.125Z,53.08
2018-04-07T04:33:13.277Z,53.27
2018-04-07T04:33:39.425Z,52.98
2018-04-07T04:34:05.577Z,53.17
2018-04-07T04:34:31.752Z,53.36
2018-04-07T04:34:57.908Z,53.36
2018-04-07T04:35:24.053Z,53.08
2018-04-07T04:35:50.204Z,52.98
2018-04-07T04:36:16.382Z,53.17
2018-04-07T04:36:42.560Z,52.98
2018-04-07T04:37:08.735Z,53.36
2018-04-07T04:37:34.887Z,53.65
2018-04-07T04:38:01.035Z,53.94
2018-04-07T04:38:27.185Z,54.22
2018-04-07T04:38:53.335Z,54.13
2018-04-07T04:39:19.489Z,53.55
2018-04-07T04:39:45.640Z,54.13
2018-04-07T04:40:11.792Z,54.32
2018-04-07T04:40:37.943Z,54.03
2018-04-07T04:41:04.095Z,54.03
2018-04-07T04:41:30.246Z,54.03
2018-04-07T04:41:56.422Z,53.94
2018-04-07T04:42:22.578Z,54.22
2018-04-07T04:42:48.722Z,54.13
2018-04-07T04:43:14.870Z,54.13
2018-04-07T04:43:41.021Z,54.22
2018-04-07T04:44:07.173Z,54.41
2018-04-07T04:44:33.321Z,54.5
2018-04-07T04:44:59.473Z,54.22
2018-04-07T04:45:25.624Z,54.57
2018-04-07T04:45:51.809Z,54.13
2018-04-07T04:46:17.980Z,54.32
2018-04-07T04:46:44.132Z,54.03
2018-04-07T04:47:10.288Z,54
2018-04-07T04:47:36.432Z,54.1
2018-04-07T04:48:02.581Z,54.22
2018-04-07T04:48:28.735Z,54.19
2018-04-07T04:48:54.890Z,54.19
2018-04-07T04:49:21.038Z,54.19
2018-04-07T04:49:47.189Z,54.19
2018-04-07T04:50:13.341Z,54.38
2018-04-07T04:50:39.490Z,54.38
2018-04-07T04:51:05.639Z,54.48
2018-04-07T04:51:31.788Z,54.41
2018-04-07T04:51:57.938Z,54.29
2018-04-07T04:52:24.089Z,54.48
2018-04-07T04:52:50.239Z,54.29
2018-04-07T04:53:16.387Z,54.38
2018-04-07T04:53:42.536Z,54.29
2018-04-07T04:54:08.712Z,54.1
2018-04-07T04:54:34.891Z,54.57
2018-04-07T04:55:01.074Z,54.48
2018-04-07T04:55:27.201Z,54.77
2018-04-07T04:55:53.369Z,54.67
2018-04-07T04:56:19.520Z,54.48
2018-04-07T04:56:45.671Z,54.5
2018-04-07T04:57:11.820Z,54.38
2018-04-07T04:57:37.972Z,54.29
2018-04-07T04:58:04.120Z,54.29
2018-04-07T04:58:30.274Z,54.38
2018-04-07T04:58:56.430Z,54.48
2018-04-07T04:59:22.573Z,54.29
2018-04-07T04:59:48.722Z,54.77
2018-04-07T05:00:14.875Z,54.38
2018-04-07T05:00:41.054Z,54.5
2018-04-07T05:01:07.205Z,54.67
2018-04-07T05:01:33.380Z,54.57
2018-04-07T05:01:59.533Z,54.57
2018-04-07T05:02:25.682Z,55.15
2018-04-07T05:02:51.827Z,54.48
2018-04-07T05:03:17.985Z,54.77
2018-04-07T05:03:44.164Z,54.57
2018-04-07T05:04:10.314Z,54.1
2018-04-07T05:04:36.464Z,54.48
2018-04-07T05:05:02.614Z,54.57
2018-04-07T05:05:28.764Z,54.67
2018-04-07T05:05:54.917Z,54.48
2018-04-07T05:06:21.063Z,54.48
2018-04-07T05:06:47.240Z,54.48
2018-04-07T05:07:13.398Z,54.96
2018-04-07T05:07:39.570Z,54.67
2018-04-07T05:08:05.745Z,54.96
2018-04-07T05:08:31.894Z,55.05
2018-04-07T05:08:58.072Z,54.86
2018-04-07T05:09:24.219Z,55.52
2018-04-07T05:09:50.372Z,55.52
2018-04-07T05:10:16.524Z,54.96
2018-04-07T05:10:42.675Z,55.33
2018-04-07T05:11:08.827Z,55.24
2018-04-07T05:11:34.980Z,54.67
2018-04-07T05:12:01.133Z,54.69
2018-04-07T05:12:27.281Z,54.69
2018-04-07T05:12:53.431Z,54.69
2018-04-07T05:13:19.582Z,54.89
2018-04-07T05:13:45.732Z,54.5
2018-04-07T05:14:11.884Z,54.32
2018-04-07T05:14:38.031Z,54.69
2018-04-07T05:15:04.205Z,55.05
2018-04-07T05:15:30.360Z,54.67
2018-04-07T05:15:56.513Z,54.48
2018-04-07T05:16:22.664Z,54.48
2018-04-07T05:16:48.817Z,54.6
2018-04-07T05:17:14.967Z,54.79
2018-04-07T05:17:41.156Z,54.48
2018-04-07T05:18:07.307Z,54.79
2018-04-07T05:18:33.458Z,54.69
2018-04-07T05:18:59.607Z,54.6
2018-04-07T05:19:25.786Z,54.32
2018-04-07T05:19:51.934Z,54.6
2018-04-07T05:20:18.083Z,54.13
2018-04-07T05:20:44.232Z,54.13
2018-04-07T05:21:10.384Z,54.41
2018-04-07T05:21:36.534Z,54.41
2018-04-07T05:22:02.711Z,54.6
2018-04-07T05:22:28.861Z,54.22
2018-04-07T05:22:55.013Z,54.5
2018-04-07T05:23:21.166Z,54.22
2018-04-07T05:23:47.316Z,54.32
2018-04-07T05:24:13.473Z,54.32
2018-04-07T05:24:39.617Z,53.94
2018-04-07T05:25:05.768Z,54.03
2018-04-07T05:25:31.919Z,53.94
2018-04-07T05:25:58.068Z,53.94
2018-04-07T05:26:24.248Z,54.03
2018-04-07T05:26:50.393Z,54.13
2018-04-07T05:27:16.536Z,54.03
2018-04-07T05:27:42.661Z,53.94
2018-04-07T05:28:08.819Z,54.15
2018-04-07T05:28:34.956Z,54.25
2018-04-07T05:29:01.094Z,54.22
2018-04-07T05:29:27.253Z,53.55
2018-04-07T05:29:53.394Z,53.55
2018-04-07T05:30:19.530Z,53.46
2018-04-07T05:30:45.699Z,54.06
2018-04-07T05:31:11.834Z,54.15
2018-04-07T05:31:37.975Z,53.58
2018-04-07T05:32:04.113Z,53.58
2018-04-07T05:32:30.248Z,53.39
2018-04-07T05:32:56.387Z,53.3
2018-04-07T05:33:22.526Z,53.67
2018-04-07T05:33:48.682Z,53.58
2018-04-07T05:34:14.816Z,53.11
2018-04-07T05:34:40.951Z,53.49
2018-04-07T05:35:07.092Z,53.39
2018-04-07T05:35:33.242Z,53.3
2018-04-07T05:35:59.386Z,53.39
2018-04-07T05:36:25.522Z,53.17
2018-04-07T05:36:51.661Z,53.46
2018-04-07T05:37:17.784Z,53.94
2018-04-07T05:37:43.924Z,53.65
2018-04-07T05:38:10.060Z,53.36